Time;durP1;ratioP1;P1;durP2;ratioP2;P2;SDS_P1;SDS_P2;PMS_P1;PMS_P2;Temp;Humidity;BMP_temperature;BMP_pressure;BME280_temperature;BME280_humidity;BME280_pressure;Samples;Min_cycle;Max_cycle;Signal;HPM_P1;HPM_P2
2021/04/16 00:01:03;;;;;;;9.77;6.20;;;1.70;61.60;;;;;;4984930;28;20035;-63
2021/04/16 00:03:28;;;;;;;12.95;5.90;;;1.70;61.80;;;;;;4980404;28;20039;-64
2021/04/16 00:05:58;;;;;;;7.45;5.75;;;1.70;61.80;;;;;;4980599;28;20038;-63
2021/04/16 00:08:30;;;;;;;9.27;5.78;;;1.60;61.90;;;;;;4979412;28;20027;-64
2021/04/16 00:11:13;;;;;;;11.63;6.30;;;1.60;61.90;;;;;;4978392;28;20414;-64
2021/04/16 00:13:44;;;;;;;9.88;6.32;;;1.60;62.10;;;;;;4980448;28;20035;-64
2021/04/16 00:16:17;;;;;;;8.50;6.47;;;1.50;62.10;;;;;;4980386;28;20058;-63
2021/04/16 00:18:47;;;;;;;12.27;6.32;;;1.40;62.40;;;;;;4979646;28;20102;-63
2021/04/16 00:21:14;;;;;;;7.70;5.93;;;1.40;62.40;;;;;;4980593;28;20034;-65
2021/04/16 00:23:44;;;;;;;10.43;6.30;;;1.40;62.40;;;;;;4980275;28;20043;-64
2021/04/16 00:26:15;;;;;;;11.07;6.28;;;1.30;62.60;;;;;;4979878;28;20527;-64
2021/04/16 00:28:41;;;;;;;11.88;5.97;;;1.30;62.70;;;;;;4979731;28;20458;-63
2021/04/16 00:31:22;;;;;;;7.97;5.78;;;1.30;62.80;;;;;;4981236;28;20551;-64
2021/04/16 00:33:50;;;;;;;11.35;6.10;;;1.30;62.80;;;;;;4996678;28;20030;-64
2021/04/16 00:36:18;;;;;;;8.45;6.07;;;1.20;62.70;;;;;;4983469;28;20039;-62
2021/04/16 00:38:47;;;;;;;7.43;5.93;;;1.30;62.80;;;;;;5003778;28;20077;-64
2021/04/16 00:41:21;;;;;;;10.30;6.50;;;1.30;62.80;;;;;;4984051;28;20050;-64
2021/04/16 00:43:47;;;;;;;12.38;6.93;;;1.30;63.20;;;;;;4984141;28;20142;-64
2021/04/16 00:46:37;;;;;;;10.43;6.32;;;1.30;63.00;;;;;;4983721;28;20114;-64
2021/04/16 00:49:06;;;;;;;10.55;6.45;;;1.30;63.00;;;;;;4983401;28;20611;-65
2021/04/16 00:51:45;;;;;;;10.82;6.88;;;1.30;62.80;;;;;;4983024;28;20039;-61
2021/04/16 00:54:20;;;;;;;8.77;6.03;;;1.30;63.90;;;;;;5004643;28;20030;-64
2021/04/16 00:56:50;;;;;;;9.38;6.18;;;1.30;62.90;;;;;;4982438;28;20109;-65
2021/04/16 00:59:19;;;;;;;10.27;6.55;;;1.30;62.60;;;;;;4983592;28;20035;-64
2021/04/16 01:01:47;;;;;;;8.88;6.25;;;1.30;62.60;;;;;;4980149;28;20034;-65
2021/04/16 01:04:16;;;;;;;9.73;6.22;;;1.30;62.70;;;;;;4998103;28;20030;-64
2021/04/16 01:06:44;;;;;;;10.75;5.28;;;1.30;62.70;;;;;;4982510;28;20046;-64
2021/04/16 01:09:17;;;;;;;9.55;5.70;;;1.30;62.80;;;;;;4983665;28;20045;-64
2021/04/16 01:11:48;;;;;;;9.20;5.43;;;1.30;62.80;;;;;;4981707;28;20561;-64
2021/04/16 01:14:17;;;;;;;9.88;5.20;;;1.30;62.70;;;;;;4982993;28;20517;-64
2021/04/16 01:16:46;;;;;;;9.00;5.30;;;1.40;62.80;;;;;;4982473;28;20113;-64
2021/04/16 01:19:43;;;;;;;7.35;4.95;;;1.40;63.00;;;;;;4995469;28;20034;-64
2021/04/16 01:22:28;;;;;;;7.00;5.18;;;1.40;63.50;;;;;;4983218;28;20038;-64
2021/04/16 01:24:58;;;;;;;6.82;5.05;;;1.50;63.00;;;;;;5002928;28;20039;-64
2021/04/16 01:27:28;;;;;;;5.18;4.45;;;1.50;62.90;;;;;;4983262;28;20108;-62
2021/04/16 01:30:09;;;;;;;5.97;4.53;;;1.50;62.80;;;;;;4983343;28;20039;-64
2021/04/16 01:32:41;;;;;;;5.93;4.07;;;1.50;62.80;;;;;;4982779;28;20061;-64
2021/04/16 01:35:15;;;;;;;5.85;4.35;;;1.60;62.70;;;;;;4984076;28;20056;-64
2021/04/16 01:37:45;;;;;;;6.53;3.97;;;1.60;62.80;;;;;;4980564;28;20035;-63
2021/04/16 01:40:14;;;;;;;4.88;3.80;;;1.60;62.70;;;;;;4994097;28;20038;-64
2021/04/16 01:42:42;;;;;;;5.03;3.80;;;1.60;62.70;;;;;;4993355;28;20030;-64
2021/04/16 01:45:17;;;;;;;5.10;4.00;;;1.60;62.60;;;;;;4983577;28;20034;-65
2021/04/16 01:47:43;;;;;;;5.32;3.70;;;1.60;62.90;;;;;;4982892;28;20042;-64
2021/04/16 01:50:13;;;;;;;5.43;3.92;;;1.60;62.60;;;;;;4982795;28;20407;-65
2021/04/16 01:52:43;;;;;;;4.97;3.53;;;1.60;62.80;;;;;;4983124;28;20034;-64
2021/04/16 01:55:16;;;;;;;4.53;3.65;;;1.70;63.70;;;;;;4982625;28;20039;-65
2021/04/16 01:57:44;;;;;;;4.00;3.47;;;1.70;62.80;;;;;;4981855;28;20067;-64
2021/04/16 02:00:38;;;;;;;3.75;3.08;;;1.70;62.60;;;;;;4982532;28;20038;-65
2021/04/16 02:03:08;;;;;;;6.50;3.55;;;1.70;63.20;;;;;;4982874;28;20039;-65
2021/04/16 02:05:36;;;;;;;4.05;3.47;;;1.70;62.60;;;;;;4981949;28;20038;-64
2021/04/16 02:08:08;;;;;;;4.30;3.30;;;1.70;62.50;;;;;;4996987;28;20038;-65
2021/04/16 02:10:36;;;;;;;6.55;3.60;;;1.70;62.60;;;;;;4981147;28;20026;-64
2021/04/16 02:13:06;;;;;;;3.88;3.42;;;1.70;62.50;;;;;;4980600;28;20034;-64
2021/04/16 02:15:34;;;;;;;4.00;3.55;;;1.80;62.60;;;;;;4982399;28;20042;-62
2021/04/16 02:18:00;;;;;;;5.20;3.40;;;1.70;62.50;;;;;;4980131;28;20045;-64
2021/04/16 02:20:30;;;;;;;6.40;3.58;;;1.80;62.50;;;;;;4981939;28;20034;-64
2021/04/16 02:22:59;;;;;;;4.38;3.47;;;1.80;62.50;;;;;;4983053;28;20034;-64
2021/04/16 02:25:27;;;;;;;5.88;3.60;;;1.80;62.40;;;;;;4981268;28;20267;-64
2021/04/16 02:28:00;;;;;;;6.00;3.17;;;1.80;62.50;;;;;;4982033;28;20042;-64
2021/04/16 02:30:34;;;;;;;3.63;3.10;;;1.80;62.50;;;;;;4981793;28;20034;-64
2021/04/16 02:33:05;;;;;;;5.68;3.15;;;1.80;62.50;;;;;;5003245;28;20062;-64
2021/04/16 02:35:33;;;;;;;6.18;3.42;;;1.80;62.30;;;;;;4979803;28;20027;-64
2021/04/16 02:38:03;;;;;;;7.07;3.72;;;1.80;62.40;;;;;;4980942;28;20031;-65
2021/04/16 02:40:29;;;;;;;4.43;3.33;;;1.80;62.50;;;;;;4980661;28;20034;-64
2021/04/16 02:43:00;;;;;;;3.90;3.20;;;1.80;62.40;;;;;;5002603;28;20623;-65
2021/04/16 02:45:32;;;;;;;7.72;3.45;;;1.80;62.40;;;;;;4981201;28;20031;-64
2021/04/16 02:48:03;;;;;;;5.93;3.58;;;1.80;62.50;;;;;;5001988;28;21987;-65
2021/04/16 02:50:34;;;;;;;4.20;3.10;;;1.80;62.50;;;;;;5002244;28;20038;-64
2021/04/16 02:53:07;;;;;;;4.70;3.28;;;1.80;62.50;;;;;;5002600;28;20490;-65
2021/04/16 02:55:32;;;;;;;6.55;3.20;;;1.80;62.50;;;;;;4980393;28;20403;-64
2021/04/16 02:58:00;;;;;;;4.15;3.22;;;1.80;62.50;;;;;;4980248;28;20030;-63
2021/04/16 03:00:32;;;;;;;5.25;3.47;;;1.80;62.50;;;;;;4981688;28;20042;-64
2021/04/16 03:02:58;;;;;;;6.50;3.83;;;1.80;62.60;;;;;;4981560;28;20031;-63
2021/04/16 03:05:24;;;;;;;4.88;3.28;;;1.80;62.50;;;;;;4981162;28;20077;-65
2021/04/16 03:07:55;;;;;;;5.60;3.80;;;1.80;62.50;;;;;;4980587;28;20039;-65
2021/04/16 03:10:29;;;;;;;4.10;3.30;;;1.80;62.50;;;;;;4979102;28;20439;-66
2021/04/16 03:13:00;;;;;;;4.35;3.25;;;1.80;62.50;;;;;;4981248;28;20038;-64
2021/04/16 03:15:28;;;;;;;4.82;3.33;;;1.70;62.30;;;;;;4985459;28;20046;-65
2021/04/16 03:17:56;;;;;;;3.80;3.30;;;1.70;62.30;;;;;;4980658;28;20034;-66
2021/04/16 03:20:26;;;;;;;3.95;3.33;;;1.70;63.10;;;;;;4979931;28;20042;-65
2021/04/16 03:22:54;;;;;;;4.07;3.50;;;1.70;62.30;;;;;;5001855;28;20034;-64
2021/04/16 03:25:25;;;;;;;4.50;3.38;;;1.70;62.20;;;;;;4979715;28;20109;-64
2021/04/16 03:27:54;;;;;;;8.35;3.78;;;1.70;62.30;;;;;;4980976;28;20038;-65
2021/04/16 03:30:25;;;;;;;5.63;3.42;;;1.70;62.30;;;;;;4979856;28;20500;-65
2021/04/16 03:32:55;;;;;;;4.60;3.30;;;1.70;62.40;;;;;;4978622;28;20038;-64
2021/04/16 03:35:21;;;;;;;5.38;3.47;;;1.60;62.30;;;;;;4981680;28;20062;-64
2021/04/16 03:37:51;;;;;;;4.60;3.45;;;1.60;62.30;;;;;;4979734;28;20062;-65
2021/04/16 03:40:21;;;;;;;3.78;3.38;;;1.60;62.30;;;;;;4980115;28;20035;-65
2021/04/16 03:42:54;;;;;;;4.75;3.55;;;1.60;62.30;;;;;;4980200;28;20041;-64
2021/04/16 03:45:23;;;;;;;6.13;3.65;;;1.60;62.30;;;;;;4980206;28;20027;-64
2021/04/16 03:47:52;;;;;;;5.03;3.60;;;1.60;62.40;;;;;;4993985;28;20149;-64
2021/04/16 03:50:38;;;;;;;4.78;3.60;;;1.60;62.40;;;;;;4978132;28;20118;-64
2021/04/16 03:53:10;;;;;;;6.03;3.70;;;1.60;62.70;;;;;;4980383;28;20125;-65
2021/04/16 03:55:40;;;;;;;5.65;3.67;;;1.60;62.30;;;;;;4981500;28;20509;-64
2021/04/16 03:58:13;;;;;;;4.15;3.63;;;1.60;62.30;;;;;;4978567;28;20039;-64
2021/04/16 04:00:41;;;;;;;5.25;3.60;;;1.50;62.30;;;;;;4979575;28;20035;-64
2021/04/16 04:03:11;;;;;;;4.00;3.60;;;1.50;62.30;;;;;;4980390;28;20035;-64
2021/04/16 04:05:44;;;;;;;6.47;4.35;;;1.50;62.30;;;;;;4980110;28;20042;-64
2021/04/16 04:08:12;;;;;;;6.63;4.15;;;1.50;62.40;;;;;;4983955;28;20067;-64
2021/04/16 04:10:40;;;;;;;9.25;4.35;;;1.50;62.40;;;;;;4981145;28;20031;-64
2021/04/16 04:13:12;;;;;;;7.82;4.20;;;1.40;62.20;;;;;;4984486;28;20030;-65
2021/04/16 04:15:40;;;;;;;7.30;5.00;;;1.40;62.40;;;;;;4984486;28;20109;-64
2021/04/16 04:18:09;;;;;;;6.43;4.55;;;1.40;62.50;;;;;;5005453;28;20492;-64
2021/04/16 04:20:36;;;;;;;6.97;4.88;;;1.40;62.40;;;;;;4983610;28;20043;-65
2021/04/16 04:23:03;;;;;;;6.07;4.38;;;1.40;62.40;;;;;;4984782;28;20046;-63
2021/04/16 04:25:33;;;;;;;7.45;5.28;;;1.40;62.40;;;;;;4984653;28;20026;-64
2021/04/16 04:28:01;;;;;;;6.50;4.10;;;1.40;63.30;;;;;;5004208;28;20046;-65
2021/04/16 04:30:32;;;;;;;5.43;4.25;;;1.40;63.30;;;;;;5004940;28;20046;-64
2021/04/16 04:33:01;;;;;;;6.28;4.57;;;1.40;62.50;;;;;;4984856;28;20046;-65
2021/04/16 04:35:31;;;;;;;7.00;4.32;;;1.40;62.50;;;;;;4984190;28;20050;-63
2021/04/16 04:37:57;;;;;;;6.60;4.07;;;1.40;62.50;;;;;;4982977;28;20075;-65
2021/04/16 04:40:26;;;;;;;5.72;4.25;;;1.30;62.30;;;;;;4998051;28;20062;-66
2021/04/16 04:42:54;;;;;;;4.85;4.28;;;1.30;62.40;;;;;;4983351;28;20030;-65
2021/04/16 04:45:21;;;;;;;5.13;4.10;;;1.30;63.20;;;;;;4983085;28;20038;-65
2021/04/16 04:47:51;;;;;;;5.93;4.68;;;1.30;62.50;;;;;;4982685;28;20500;-64
2021/04/16 04:50:25;;;;;;;5.85;4.32;;;1.30;62.50;;;;;;4983119;28;20027;-65
2021/04/16 04:52:53;;;;;;;6.95;4.80;;;1.20;62.50;;;;;;4981110;28;20424;-65
2021/04/16 04:55:31;;;;;;;6.97;4.68;;;1.20;62.50;;;;;;4981450;28;20199;-65
2021/04/16 04:58:04;;;;;;;6.25;4.47;;;1.20;62.60;;;;;;4980943;28;20057;-64
2021/04/16 05:00:32;;;;;;;9.35;4.40;;;1.10;62.70;;;;;;4983255;28;20061;-65
2021/04/16 05:02:58;;;;;;;7.10;5.18;;;1.00;62.90;;;;;;4983313;28;20046;-63
2021/04/16 05:05:26;;;;;;;10.40;5.57;;;1.00;63.00;;;;;;4988885;28;20026;-66
2021/04/16 05:07:56;;;;;;;6.78;4.47;;;1.00;63.50;;;;;;4982556;28;20054;-66
2021/04/16 05:10:26;;;;;;;6.30;4.53;;;1.00;63.40;;;;;;4980460;28;20043;-66
2021/04/16 05:12:54;;;;;;;7.60;5.10;;;1.00;63.70;;;;;;4988836;28;20042;-64
2021/04/16 05:15:24;;;;;;;6.97;4.85;;;0.90;63.90;;;;;;4981372;28;20042;-63
2021/04/16 05:17:50;;;;;;;6.72;4.38;;;0.90;64.20;;;;;;4980920;28;20508;-65
2021/04/16 05:20:20;;;;;;;8.30;5.13;;;1.00;64.20;;;;;;4983188;28;20042;-64
2021/04/16 05:22:48;;;;;;;6.88;4.75;;;1.00;64.40;;;;;;4981916;28;20512;-66
2021/04/16 05:25:19;;;;;;;6.57;5.00;;;1.00;64.40;;;;;;4982563;28;20034;-65
2021/04/16 05:27:50;;;;;;;8.48;4.63;;;1.10;64.70;;;;;;4983190;28;20133;-64
2021/04/16 05:30:20;;;;;;;6.15;4.93;;;1.20;65.00;;;;;;4983227;28;20062;-65
2021/04/16 05:32:48;;;;;;;7.80;5.15;;;1.20;64.90;;;;;;4981920;28;20118;-64
2021/04/16 05:35:15;;;;;;;7.60;4.90;;;1.20;65.00;;;;;;4982081;28;20587;-64
2021/04/16 05:37:43;;;;;;;7.20;5.20;;;1.30;65.10;;;;;;4981715;28;20047;-65
2021/04/16 05:40:13;;;;;;;7.07;4.72;;;1.30;65.10;;;;;;4982530;28;20038;-65
2021/04/16 05:42:39;;;;;;;6.30;5.13;;;1.40;65.20;;;;;;4982079;28;20026;-65
2021/04/16 05:45:11;;;;;;;6.68;5.15;;;1.40;65.30;;;;;;4997353;28;20563;-65
2021/04/16 05:47:41;;;;;;;8.70;5.32;;;1.50;65.40;;;;;;4982418;28;20038;-63
2021/04/16 05:50:15;;;;;;;7.70;5.80;;;1.50;65.60;;;;;;4982387;28;20111;-65
2021/04/16 05:52:44;;;;;;;9.38;5.15;;;1.50;65.60;;;;;;4981406;28;20047;-65
2021/04/16 05:55:12;;;;;;;6.32;5.60;;;1.60;65.60;;;;;;4982254;28;20068;-64
2021/04/16 05:57:38;;;;;;;8.30;5.85;;;1.60;65.60;;;;;;4982005;28;20034;-65
2021/04/16 06:00:11;;;;;;;7.65;6.00;;;1.70;65.60;;;;;;4982929;28;20466;-64
2021/04/16 06:02:41;;;;;;;7.32;5.65;;;1.70;66.00;;;;;;4981476;28;20121;-63
2021/04/16 06:05:12;;;;;;;11.25;5.22;;;1.80;66.80;;;;;;4982191;28;20511;-64
2021/04/16 06:07:41;;;;;;;6.03;5.22;;;1.80;66.10;;;;;;4981854;28;20039;-64
2021/04/16 06:10:13;;;;;;;7.90;5.72;;;1.80;66.20;;;;;;4982491;28;20049;-62
2021/04/16 06:12:44;;;;;;;7.20;5.70;;;1.90;66.40;;;;;;4978311;28;20511;-64
2021/04/16 06:15:14;;;;;;;7.88;5.88;;;1.90;66.10;;;;;;4981905;28;20171;-64
2021/04/16 06:17:47;;;;;;;7.47;5.57;;;1.90;66.50;;;;;;4981418;28;20581;-65
2021/04/16 06:20:18;;;;;;;8.98;5.78;;;2.00;66.60;;;;;;4981435;28;20168;-65
2021/04/16 06:22:47;;;;;;;8.30;6.05;;;2.00;66.60;;;;;;4980741;28;20388;-64
2021/04/16 06:25:20;;;;;;;9.07;5.97;;;2.10;66.70;;;;;;5003896;28;20022;-65
2021/04/16 06:27:48;;;;;;;7.70;5.18;;;2.10;67.00;;;;;;5002773;28;20058;-64
2021/04/16 06:30:17;;;;;;;7.00;5.78;;;2.20;66.80;;;;;;4981326;28;20034;-64
2021/04/16 06:33:07;;;;;;;10.32;6.00;;;2.30;66.80;;;;;;4980926;28;20401;-64
2021/04/16 06:35:35;;;;;;;8.68;6.10;;;2.30;66.80;;;;;;4981463;28;20042;-64
2021/04/16 06:38:04;;;;;;;7.13;5.80;;;2.40;66.80;;;;;;4981266;28;20031;-65
2021/04/16 06:40:35;;;;;;;7.07;5.82;;;2.50;66.90;;;;;;4980889;28;20031;-64
2021/04/16 06:43:05;;;;;;;9.32;6.13;;;2.50;67.00;;;;;;4982355;28;20042;-63
2021/04/16 06:45:32;;;;;;;8.23;6.35;;;2.60;67.00;;;;;;4981072;28;20026;-64
2021/04/16 06:48:06;;;;;;;7.68;6.18;;;2.70;67.00;;;;;;4980669;28;20709;-64
2021/04/16 06:50:35;;;;;;;8.43;6.38;;;2.70;67.20;;;;;;4980288;28;20031;-64
2021/04/16 06:53:15;;;;;;;8.23;6.55;;;2.80;67.30;;;;;;4996700;28;20404;-64
2021/04/16 06:55:57;;;;;;;7.38;5.82;;;2.90;67.20;;;;;;4981185;28;20038;-64
2021/04/16 06:58:37;;;;;;;7.78;6.70;;;3.00;67.30;;;;;;4980515;28;20058;-64
2021/04/16 07:01:15;;;;;;;8.05;6.13;;;3.00;67.50;;;;;;4981588;28;20066;-60
2021/04/16 07:03:49;;;;;;;9.02;6.43;;;3.10;67.00;;;;;;4978733;28;20044;-65
2021/04/16 07:06:31;;;;;;;8.35;6.40;;;3.20;66.80;;;;;;4980944;28;20038;-59
2021/04/16 07:09:04;;;;;;;8.80;6.50;;;3.30;67.50;;;;;;4997029;28;20041;-64
2021/04/16 07:11:40;;;;;;;8.73;6.07;;;3.30;66.70;;;;;;4979626;28;20500;-65
2021/04/16 07:14:13;;;;;;;12.05;6.63;;;3.40;67.20;;;;;;4981918;28;20030;-64
2021/04/16 07:16:46;;;;;;;7.73;6.03;;;3.50;67.00;;;;;;5001910;28;20121;-64
2021/04/16 07:19:21;;;;;;;7.90;5.90;;;3.60;66.80;;;;;;4980697;28;20042;-63
2021/04/16 07:21:55;;;;;;;6.68;5.95;;;3.60;66.50;;;;;;4981230;28;20459;-64
2021/04/16 07:24:26;;;;;;;6.80;5.60;;;3.70;66.50;;;;;;4981376;28;20495;-63
2021/04/16 07:26:58;;;;;;;8.55;5.95;;;3.70;66.20;;;;;;4981648;28;20509;-64
2021/04/16 07:29:45;;;;;;;7.72;6.30;;;3.80;66.50;;;;;;4981223;28;20023;-63
2021/04/16 07:32:38;;;;;;;7.10;6.40;;;3.90;66.60;;;;;;4981960;28;20531;-64
2021/04/16 07:35:21;;;;;;;8.18;6.10;;;4.00;66.50;;;;;;4982891;28;20041;-64
2021/04/16 07:38:00;;;;;;;7.45;5.80;;;4.10;66.30;;;;;;4980586;28;20041;-62
2021/04/16 07:40:34;;;;;;;6.93;6.07;;;4.20;66.00;;;;;;4979823;28;20035;-63
2021/04/16 07:43:03;;;;;;;7.47;5.40;;;4.30;65.70;;;;;;4982042;28;20039;-64
2021/04/16 07:45:49;;;;;;;7.38;5.72;;;4.30;65.30;;;;;;4980852;28;20034;-64
2021/04/16 07:48:25;;;;;;;8.77;6.15;;;4.40;65.40;;;;;;4979412;28;20058;-64
2021/04/16 07:50:58;;;;;;;9.35;6.20;;;4.40;65.10;;;;;;4979572;28;20039;-64
2021/04/16 07:53:42;;;;;;;8.85;6.10;;;4.50;65.10;;;;;;4981049;28;20023;-64
2021/04/16 07:56:20;;;;;;;6.95;5.53;;;4.60;65.30;;;;;;4982420;28;20073;-63
2021/04/16 07:58:51;;;;;;;7.35;6.18;;;4.80;65.20;;;;;;4980872;28;20407;-64
2021/04/16 08:01:29;;;;;;;5.82;5.13;;;4.80;64.80;;;;;;4986076;28;20035;-64
2021/04/16 08:04:05;;;;;;;7.03;5.60;;;4.90;64.50;;;;;;4979513;28;20125;-64
2021/04/16 08:06:42;;;;;;;8.32;5.38;;;5.10;64.40;;;;;;5002298;28;20035;-63
2021/04/16 08:09:26;;;;;;;7.68;5.38;;;5.20;64.00;;;;;;4980904;28;20027;-64
2021/04/16 08:12:12;;;;;;;7.10;5.50;;;5.30;63.60;;;;;;4999882;28;20106;-64
2021/04/16 08:14:44;;;;;;;7.75;5.60;;;5.30;62.80;;;;;;4980387;28;20042;-64
2021/04/16 08:17:24;;;;;;;6.55;5.30;;;5.40;62.90;;;;;;5001861;28;20110;-64
2021/04/16 08:19:53;;;;;;;6.95;5.20;;;5.50;62.80;;;;;;4980344;28;20085;-64
2021/04/16 08:22:33;;;;;;;6.13;4.97;;;5.60;62.80;;;;;;4978504;28;20022;-64
2021/04/16 08:25:07;;;;;;;5.60;4.90;;;5.60;62.30;;;;;;4980680;28;20038;-64
2021/04/16 08:27:57;;;;;;;6.25;5.22;;;5.70;62.10;;;;;;4980089;28;20089;-64
2021/04/16 08:30:46;;;;;;;6.40;4.95;;;5.80;62.00;;;;;;4981056;28;20054;-64
2021/04/16 08:33:12;;;;;;;5.43;4.07;;;5.90;61.70;;;;;;4981312;28;20810;-65
2021/04/16 08:36:04;;;;;;;4.97;4.47;;;6.00;61.50;;;;;;4978949;28;20043;-64
2021/04/16 08:38:35;;;;;;;6.85;5.30;;;6.10;60.80;;;;;;4977401;28;20022;-64
2021/04/16 08:41:04;;;;;;;5.90;4.75;;;6.10;60.90;;;;;;4981455;28;20059;-65
2021/04/16 08:43:46;;;;;;;7.72;4.97;;;6.20;60.40;;;;;;4980549;28;20031;-64
2021/04/16 08:46:32;;;;;;;5.43;4.80;;;6.30;59.90;;;;;;4980179;28;20031;-64
2021/04/16 08:49:06;;;;;;;5.95;4.93;;;6.40;59.50;;;;;;4995471;28;20516;-64
2021/04/16 08:51:38;;;;;;;5.15;4.63;;;6.40;59.60;;;;;;5000666;28;20526;-65
2021/04/16 08:54:11;;;;;;;4.80;4.28;;;6.50;59.40;;;;;;4983356;28;20030;-65
2021/04/16 08:56:48;;;;;;;5.63;4.53;;;6.50;59.20;;;;;;4982073;28;20030;-64
2021/04/16 08:59:16;;;;;;;7.53;4.63;;;6.60;59.00;;;;;;4983985;28;20050;-64
2021/04/16 09:01:53;;;;;;;6.32;5.13;;;6.70;59.10;;;;;;4997232;28;20501;-65
2021/04/16 09:04:23;;;;;;;6.30;4.60;;;6.70;58.20;;;;;;4983418;28;20058;-64
2021/04/16 09:06:55;;;;;;;5.35;4.00;;;6.80;58.20;;;;;;4988349;28;20161;-64
2021/04/16 09:09:47;;;;;;;4.97;4.28;;;6.80;58.20;;;;;;4987439;28;20403;-65
2021/04/16 09:12:44;;;;;;;5.03;4.22;;;6.80;57.80;;;;;;4983413;28;20113;-65
2021/04/16 09:15:24;;;;;;;5.32;3.78;;;6.90;58.00;;;;;;4982949;28;20039;-64
2021/04/16 09:17:59;;;;;;;5.30;3.92;;;7.00;58.00;;;;;;4982776;28;20030;-64
2021/04/16 09:20:48;;;;;;;6.28;4.05;;;7.00;57.60;;;;;;4982886;28;20069;-63
2021/04/16 09:23:40;;;;;;;4.15;3.53;;;7.00;57.80;;;;;;4984013;28;20034;-64
2021/04/16 09:26:13;;;;;;;4.95;4.00;;;7.10;57.60;;;;;;5004885;28;20118;-64
2021/04/16 09:28:54;;;;;;;4.97;4.00;;;7.10;57.10;;;;;;4982635;28;20458;-64
2021/04/16 09:31:28;;;;;;;6.80;4.28;;;7.20;57.10;;;;;;4984327;28;20038;-64
2021/04/16 09:34:18;;;;;;;8.82;4.60;;;7.20;57.30;;;;;;4983469;28;20034;-63
2021/04/16 09:36:51;;;;;;;5.65;3.83;;;7.30;56.80;;;;;;4982118;28;20053;-64
2021/04/16 09:39:36;;;;;;;5.13;3.83;;;7.30;57.20;;;;;;4983540;28;20027;-64
2021/04/16 09:42:47;;;;;;;5.03;4.30;;;7.30;56.80;;;;;;4983908;28;20034;-64
2021/04/16 09:45:38;;;;;;;8.15;4.15;;;7.30;56.40;;;;;;4978068;28;20447;-65
2021/04/16 09:48:50;;;;;;;4.60;3.40;;;7.40;56.40;;;;;;4981909;28;20393;-65
2021/04/16 09:51:18;;;;;;;5.07;3.97;;;7.40;56.10;;;;;;4976068;28;20125;-64
2021/04/16 09:54:12;;;;;;;3.75;3.33;;;7.40;56.50;;;;;;4982200;28;20030;-64
2021/04/16 09:57:01;;;;;;;3.30;3.00;;;7.40;55.40;;;;;;4982528;28;20033;-64
2021/04/16 09:59:41;;;;;;;4.10;3.35;;;7.40;55.90;;;;;;4983728;28;20034;-64
2021/04/16 10:02:23;;;;;;;3.83;3.40;;;7.50;55.40;;;;;;4982488;28;20030;-65
2021/04/16 10:05:07;;;;;;;3.53;3.20;;;7.50;55.40;;;;;;4982022;28;20396;-64
2021/04/16 10:07:37;;;;;;;4.03;3.47;;;7.50;55.20;;;;;;4983229;28;20038;-64
2021/04/16 10:10:11;;;;;;;5.25;3.78;;;7.60;56.00;;;;;;4982176;28;20027;-64
2021/04/16 10:12:39;;;;;;;3.73;3.20;;;7.70;55.50;;;;;;4979565;28;20574;-64
2021/04/16 10:15:40;;;;;;;4.25;2.97;;;7.70;55.80;;;;;;4982302;28;20588;-65
2021/04/16 10:18:14;;;;;;;3.72;3.30;;;7.80;55.00;;;;;;4977792;28;20035;-64
2021/04/16 10:20:54;;;;;;;;;;;7.90;54.30;;;;;;4982857;28;20058;-64
2021/04/16 10:23:44;;;;;;;3.58;3.28;;;8.00;54.50;;;;;;5014377;28;19918;-64
2021/04/16 12:40:05;;;;;;;3.45;3.03;;;9.40;50.20;;;;;;4985482;28;20082;-63
2021/04/16 12:42:35;;;;;;;4.30;3.65;;;9.40;50.10;;;;;;4983712;28;20047;-65
2021/04/16 12:45:03;;;;;;;5.40;2.85;;;9.30;48.20;;;;;;5004209;28;20034;-63
2021/04/16 12:47:32;;;;;;;4.13;3.28;;;9.30;49.60;;;;;;5004588;28;20542;-65
2021/04/16 12:50:04;;;;;;;3.80;3.50;;;9.30;49.70;;;;;;4984695;28;20031;-64
2021/04/16 12:52:34;;;;;;;3.78;3.33;;;9.20;47.80;;;;;;4983828;28;20031;-65
2021/04/16 12:55:02;;;;;;;3.53;3.22;;;9.20;47.90;;;;;;4996224;28;20038;-64
2021/04/16 12:57:41;;;;;;;3.97;3.58;;;9.10;49.20;;;;;;4982821;28;20078;-65
2021/04/16 13:00:13;;;;;;;7.00;3.30;;;9.10;49.50;;;;;;4984672;28;20038;-64
2021/04/16 13:02:42;;;;;;;4.07;3.40;;;9.10;49.90;;;;;;4983033;28;20150;-64
2021/04/16 13:05:17;;;;;;;4.93;3.33;;;9.00;49.30;;;;;;4998478;28;20122;-64
2021/04/16 13:07:45;;;;;;;3.55;3.25;;;9.00;49.80;;;;;;4983201;28;20046;-65
2021/04/16 13:10:22;;;;;;;3.58;3.05;;;9.00;50.10;;;;;;4983841;28;20031;-64
2021/04/16 13:12:52;;;;;;;3.50;3.20;;;9.00;50.30;;;;;;4981216;28;20118;-64
2021/04/16 13:15:23;;;;;;;6.07;3.72;;;9.10;50.30;;;;;;4983679;28;20034;-64
2021/04/16 13:17:54;;;;;;;6.22;4.45;;;9.00;49.90;;;;;;4983140;28;20472;-64
2021/04/16 13:20:25;;;;;;;5.88;3.83;;;9.10;49.50;;;;;;4983455;28;20038;-63
2021/04/16 13:22:55;;;;;;;4.20;3.80;;;9.00;49.00;;;;;;4984052;28;20027;-64
2021/04/16 13:25:29;;;;;;;3.97;3.65;;;8.90;49.10;;;;;;4983191;28;20399;-64
2021/04/16 13:28:00;;;;;;;4.38;3.97;;;8.90;49.80;;;;;;4982866;28;20125;-64
2021/04/16 13:30:31;;;;;;;4.60;3.58;;;8.90;50.10;;;;;;4983738;28;20039;-64
2021/04/16 13:33:03;;;;;;;4.20;3.55;;;8.80;50.30;;;;;;4988034;28;20169;-65
2021/04/16 13:35:37;;;;;;;4.88;4.38;;;8.80;50.60;;;;;;4984422;28;20026;-64
2021/04/16 13:38:16;;;;;;;4.65;4.18;;;8.80;50.40;;;;;;4981974;28;20037;-64
2021/04/16 13:40:44;;;;;;;4.43;4.03;;;8.80;51.00;;;;;;4983768;28;20410;-64
2021/04/16 13:43:10;;;;;;;4.18;3.78;;;8.80;50.80;;;;;;4983036;28;20499;-65
2021/04/16 13:45:39;;;;;;;7.05;5.85;;;8.80;50.70;;;;;;4983518;28;20416;-64
2021/04/16 13:48:11;;;;;;;4.35;3.95;;;8.80;50.80;;;;;;4982741;28;20042;-63
2021/04/16 13:50:40;;;;;;;7.18;3.95;;;8.80;50.40;;;;;;4997055;28;20055;-64
2021/04/16 13:53:11;;;;;;;5.30;3.92;;;8.80;50.50;;;;;;4982644;28;20038;-64
2021/04/16 13:55:38;;;;;;;6.72;5.07;;;8.80;50.20;;;;;;4978492;28;20358;-65
2021/04/16 13:58:06;;;;;;;4.70;4.07;;;8.80;50.50;;;;;;4974179;28;20066;-64
2021/04/16 14:00:36;;;;;;;3.78;3.42;;;8.90;50.60;;;;;;4999049;28;20088;-64
2021/04/16 14:03:33;;;;;;;4.18;3.63;;;8.90;50.50;;;;;;4981877;28;20034;-65
2021/04/16 14:06:03;;;;;;;5.25;3.47;;;8.90;50.20;;;;;;4983013;28;20125;-65
2021/04/16 14:08:39;;;;;;;5.60;3.58;;;8.90;50.40;;;;;;4998732;28;20129;-65
2021/04/16 14:11:10;;;;;;;4.15;3.70;;;9.00;49.60;;;;;;4985593;28;20058;-65
2021/04/16 14:13:40;;;;;;;3.75;3.38;;;9.00;49.00;;;;;;4978823;28;22949;-65
2021/04/16 14:16:15;;;;;;;3.90;3.60;;;9.00;49.00;;;;;;4982203;28;20129;-65
2021/04/16 14:18:49;;;;;;;4.22;3.50;;;8.90;49.10;;;;;;4981952;28;20396;-65
2021/04/16 14:21:22;;;;;;;3.90;3.60;;;8.90;48.80;;;;;;4992950;28;20129;-65
2021/04/16 14:23:52;;;;;;;4.13;3.78;;;8.90;49.20;;;;;;4981293;28;20031;-65
2021/04/16 14:26:20;;;;;;;3.85;3.45;;;8.90;48.60;;;;;;4982189;28;20080;-64
2021/04/16 14:28:50;;;;;;;6.13;3.22;;;8.80;48.90;;;;;;4981239;28;20045;-64
2021/04/16 14:31:18;;;;;;;4.15;3.30;;;8.80;49.50;;;;;;4981847;28;20053;-65
2021/04/16 14:33:45;;;;;;;4.20;3.45;;;8.90;48.90;;;;;;4979975;28;20030;-64
2021/04/16 14:36:15;;;;;;;3.50;3.20;;;8.90;48.30;;;;;;4981247;28;20058;-65
2021/04/16 14:38:44;;;;;;;3.50;3.20;;;8.80;48.50;;;;;;4979066;28;20042;-64
2021/04/16 14:41:13;;;;;;;4.65;3.42;;;8.90;49.30;;;;;;4981434;28;20515;-64
2021/04/16 14:43:42;;;;;;;3.72;3.42;;;8.90;49.80;;;;;;5000106;28;20038;-64
2021/04/16 14:46:12;;;;;;;5.88;3.58;;;9.00;48.40;;;;;;4981415;28;20034;-64
2021/04/16 14:48:40;;;;;;;4.10;3.67;;;9.10;49.10;;;;;;4981739;28;20030;-65
2021/04/16 14:51:11;;;;;;;3.40;3.10;;;9.10;48.80;;;;;;4987757;28;20031;-65
2021/04/16 14:53:49;;;;;;;3.92;3.63;;;9.10;48.70;;;;;;4992422;28;20030;-65
2021/04/16 14:56:19;;;;;;;4.63;3.38;;;9.20;48.80;;;;;;4979718;28;20038;-64
2021/04/16 14:59:10;;;;;;;4.03;3.55;;;9.10;48.10;;;;;;4981081;28;20030;-65
2021/04/16 15:01:38;;;;;;;3.60;3.30;;;9.10;48.40;;;;;;4982007;28;20089;-64
2021/04/16 15:04:06;;;;;;;3.75;3.40;;;9.00;49.00;;;;;;4994756;28;20054;-64
2021/04/16 15:06:39;;;;;;;3.30;3.00;;;9.00;49.00;;;;;;4980883;28;20034;-64
2021/04/16 15:09:13;;;;;;;4.03;3.40;;;9.00;49.30;;;;;;4977936;28;20031;-65
2021/04/16 15:11:47;;;;;;;4.05;3.45;;;9.00;49.40;;;;;;4977321;28;20062;-64
2021/04/16 15:14:21;;;;;;;4.28;3.55;;;9.00;49.40;;;;;;4980952;28;20031;-64
2021/04/16 15:16:51;;;;;;;5.60;3.75;;;9.10;49.80;;;;;;4982781;28;20455;-64
2021/04/16 15:19:36;;;;;;;3.97;3.60;;;9.10;49.40;;;;;;4980139;28;20039;-64
2021/04/16 15:22:13;;;;;;;3.67;3.38;;;9.10;49.40;;;;;;4981893;28;20027;-64
2021/04/16 15:24:45;;;;;;;3.90;3.50;;;9.10;49.50;;;;;;4979386;28;20109;-64
2021/04/16 15:27:17;;;;;;;6.30;5.07;;;9.20;49.70;;;;;;4981465;28;20495;-65
2021/04/16 15:29:52;;;;;;;7.45;3.95;;;9.20;49.80;;;;;;4979918;28;20579;-64
2021/04/16 15:32:22;;;;;;;;;;;9.20;50.00;;;;;;4982040;28;20051;-65
2021/04/16 15:46:19;;;;;;;6.38;4.40;;;8.90;50.00;;;;;;4980848;28;20069;-64
2021/04/16 15:48:46;;;;;;;4.82;4.38;;;8.80;50.00;;;;;;4980405;28;20043;-64
2021/04/16 15:51:19;;;;;;;4.53;3.90;;;8.80;49.80;;;;;;4981081;28;20030;-64
2021/04/16 15:53:49;;;;;;;4.50;3.95;;;8.70;49.70;;;;;;5001298;28;20065;-64